Time;durP1;ratioP1;P1;durP2;ratioP2;P2;SDS_P1;SDS_P2;PMS_P1;PMS_P2;Temp;Humidity;BMP_temperature;BMP_pressure;BME280_temperature;BME280_humidity;BME280_pressure;Samples;Min_cycle;Max_cycle;Signal;HPM_P1;HPM_P2
2022/02/26 00:01:41;;;;;;;10.93;6.45;;;;;;;;;;5007602;28;20183;-81
2022/02/26 00:04:07;;;;;;;17.35;6.60;;;;;;;;;;5022450;28;20234;-81
2022/02/26 00:06:33;;;;;;;10.07;6.55;;;;;;;;;;5037965;28;20189;-81
2022/02/26 00:08:59;;;;;;;13.82;5.20;;;;;;;;;;5021616;28;20221;-81
2022/02/26 00:11:25;;;;;;;8.70;6.00;;;;;;;;;;5023728;28;20175;-82
2022/02/26 00:13:51;;;;;;;15.75;6.10;;;;;;;;;;5034499;28;20317;-81
2022/02/26 00:16:17;;;;;;;8.95;5.97;;;;;;;;;;5028021;28;20221;-81
2022/02/26 00:18:43;;;;;;;8.35;5.57;;;;;;;;;;5035478;28;20189;-81
2022/02/26 00:21:10;;;;;;;10.75;5.82;;;;;;;;;;5011676;28;20231;-81
2022/02/26 00:23:36;;;;;;;9.82;5.88;;;;;;;;;;5010668;28;20179;-81
2022/02/26 00:26:02;;;;;;;11.80;5.90;;;;;;;;;;5025425;28;20197;-81
2022/02/26 00:28:28;;;;;;;11.38;6.45;;;;;;;;;;5019480;28;20627;-81
2022/02/26 00:30:54;;;;;;;10.85;6.25;;;;;;;;;;5010856;28;20175;-81
2022/02/26 00:33:20;;;;;;;6.97;5.20;;;;;;;;;;5039901;28;20245;-80
2022/02/26 00:35:46;;;;;;;8.63;5.38;;;;;;;;;;5024205;28;20199;-81
2022/02/26 00:38:13;;;;;;;6.65;4.30;;;;;;;;;;5029266;28;20186;-80
2022/02/26 00:40:39;;;;;;;6.07;4.60;;;;;;;;;;5014671;28;20211;-81
2022/02/26 00:43:05;;;;;;;10.27;5.05;;;;;;;;;;5010770;28;20671;-81
2022/02/26 00:45:31;;;;;;;11.32;5.43;;;;;;;;;;5039971;28;20194;-81
2022/02/26 00:47:57;;;;;;;6.80;5.13;;;;;;;;;;5019150;28;20171;-81
2022/02/26 00:50:23;;;;;;;16.00;6.28;;;;;;;;;;5023793;28;20190;-81
2022/02/26 00:52:49;;;;;;;11.88;5.53;;;;;;;;;;5020319;28;20194;-81
2022/02/26 00:55:15;;;;;;;11.38;4.70;;;;;;;;;;5028801;28;20225;-81
2022/02/26 00:57:41;;;;;;;13.35;5.20;;;;;;;;;;5032503;28;20182;-81
2022/02/26 01:00:11;;;;;;;11.60;5.57;;;;;;;;;;5038639;28;20603;-81
2022/02/26 01:02:37;;;;;;;10.05;5.45;;;;;;;;;;5030164;28;20574;-81
2022/02/26 01:05:04;;;;;;;6.68;4.30;;;;;;;;;;5027817;28;20190;-81
2022/02/26 01:07:30;;;;;;;9.60;5.10;;;;;;;;;;5044326;28;21071;-81
2022/02/26 01:09:57;;;;;;;7.10;5.18;;;;;;;;;;5038299;28;20273;-81
2022/02/26 01:12:22;;;;;;;13.77;5.53;;;;;;;;;;5007704;28;20183;-81
2022/02/26 01:14:49;;;;;;;10.15;4.95;;;;;;;;;;5008703;28;20182;-81
2022/02/26 01:17:17;;;;;;;11.30;4.63;;;;;;;;;;5017881;28;20181;-81
2022/02/26 01:19:43;;;;;;;8.68;4.72;;;;;;;;;;5023443;28;20185;-81
2022/02/26 01:22:09;;;;;;;8.32;5.00;;;;;;;;;;5036707;28;20237;-81
2022/02/26 01:24:35;;;;;;;6.93;3.92;;;;;;;;;;5008293;28;20182;-81
2022/02/26 01:27:01;;;;;;;13.00;4.95;;;;;;;;;;5030402;28;20179;-81
2022/02/26 01:29:28;;;;;;;9.68;4.18;;;;;;;;;;5023907;28;20213;-81
2022/02/26 01:31:54;;;;;;;9.05;3.75;;;;;;;;;;5033942;28;20258;-80
2022/02/26 01:34:20;;;;;;;5.43;3.17;;;;;;;;;;5028320;28;20244;-81
2022/02/26 01:36:46;;;;;;;7.10;3.85;;;;;;;;;;5033318;28;20206;-81
2022/02/26 01:39:12;;;;;;;9.25;3.10;;;;;;;;;;5020597;28;20361;-80
2022/02/26 01:41:39;;;;;;;4.95;3.47;;;;;;;;;;5024160;28;20179;-81
2022/02/26 01:44:05;;;;;;;8.50;3.70;;;;;;;;;;5028358;28;20183;-81
2022/02/26 01:46:31;;;;;;;9.07;4.03;;;;;;;;;;5027224;28;20208;-81
2022/02/26 01:48:57;;;;;;;7.30;3.53;;;;;;;;;;5039668;28;20202;-80
2022/02/26 01:51:24;;;;;;;11.10;3.58;;;;;;;;;;5023730;28;20183;-80
2022/02/26 01:53:50;;;;;;;12.73;4.05;;;;;;;;;;5043933;28;20250;-80
2022/02/26 01:56:16;;;;;;;6.65;3.92;;;;;;;;;;5027526;28;20242;-81
2022/02/26 01:58:43;;;;;;;8.13;3.20;;;;;;;;;;5027515;28;20179;-80
2022/02/26 02:01:09;;;;;;;12.25;3.65;;;;;;;;;;5008855;28;20524;-80
2022/02/26 02:03:35;;;;;;;9.43;3.65;;;;;;;;;;5039417;28;20542;-80
2022/02/26 02:06:01;;;;;;;6.88;3.47;;;;;;;;;;5010177;28;20193;-80
2022/02/26 02:08:27;;;;;;;9.75;3.67;;;;;;;;;;5036853;28;20257;-80
2022/02/26 02:10:54;;;;;;;13.30;4.57;;;;;;;;;;5018056;28;20194;-81
2022/02/26 02:13:20;;;;;;;5.80;4.22;;;;;;;;;;5023980;28;20269;-80
2022/02/26 02:15:47;;;;;;;6.10;4.35;;;;;;;;;;5022814;28;20665;-80
2022/02/26 02:18:14;;;;;;;9.02;3.95;;;;;;;;;;5033980;28;20559;-80
2022/02/26 02:20:41;;;;;;;8.18;4.30;;;;;;;;;;5023668;28;20437;-80
2022/02/26 02:23:07;;;;;;;7.57;4.63;;;;;;;;;;5027490;28;20182;-80
2022/02/26 02:25:34;;;;;;;9.27;4.07;;;;;;;;;;5008745;28;20214;-80
2022/02/26 02:28:00;;;;;;;6.65;3.80;;;;;;;;;;5014089;28;20178;-80
2022/02/26 02:30:27;;;;;;;13.35;4.00;;;;;;;;;;5007851;28;20242;-80
2022/02/26 02:32:54;;;;;;;6.13;3.40;;;;;;;;;;5006981;28;20306;-80
2022/02/26 02:35:40;;;;;;;17.92;5.10;;;;;;;;;;5008332;28;20206;-80
2022/02/26 02:38:10;;;;;;;11.65;4.50;;;;;;;;;;5017771;28;20263;-80
2022/02/26 02:40:37;;;;;;;5.28;3.63;;;;;;;;;;5021915;28;20277;-80
2022/02/26 02:43:05;;;;;;;7.30;4.20;;;;;;;;;;5020693;28;20620;-80
2022/02/26 02:45:31;;;;;;;10.70;3.78;;;;;;;;;;5007354;28;20301;-80
2022/02/26 02:47:57;;;;;;;10.68;4.72;;;;;;;;;;5043899;28;20170;-80
2022/02/26 02:50:23;;;;;;;9.77;3.70;;;;;;;;;;5014008;28;20229;-80
2022/02/26 02:52:49;;;;;;;17.10;5.05;;;;;;;;;;5023695;28;20179;-80
2022/02/26 02:55:16;;;;;;;10.68;4.15;;;;;;;;;;5022535;28;20214;-80
2022/02/26 02:57:45;;;;;;;13.10;5.65;;;;;;;;;;5007660;28;20194;-80
2022/02/26 03:00:12;;;;;;;17.70;4.95;;;;;;;;;;5022918;28;20175;-80
2022/02/26 03:02:38;;;;;;;8.90;4.10;;;;;;;;;;5043662;28;20167;-80
2022/02/26 03:05:05;;;;;;;9.57;4.00;;;;;;;;;;5012378;28;20182;-80
2022/02/26 03:07:31;;;;;;;10.70;3.90;;;;;;;;;;5026435;28;20198;-80
2022/02/26 03:09:57;;;;;;;6.40;3.72;;;;;;;;;;5009127;28;20253;-80
2022/02/26 03:12:23;;;;;;;8.65;4.05;;;;;;;;;;5022386;28;20233;-80
2022/02/26 03:14:49;;;;;;;11.07;4.60;;;;;;;;;;5042572;28;20175;-80
2022/02/26 03:17:15;;;;;;;8.20;4.30;;;;;;;;;;5010898;28;20179;-81
2022/02/26 03:19:41;;;;;;;6.15;3.55;;;;;;;;;;5021523;28;20206;-80
2022/02/26 03:22:07;;;;;;;13.23;4.53;;;;;;;;;;5026135;28;20178;-80
2022/02/26 03:24:33;;;;;;;7.65;4.72;;;;;;;;;;5021919;28;20226;-80
2022/02/26 03:26:59;;;;;;;9.35;3.83;;;;;;;;;;5036372;28;20789;-80
2022/02/26 03:29:26;;;;;;;10.15;4.78;;;;;;;;;;5028176;28;20194;-80
2022/02/26 03:31:52;;;;;;;5.70;3.50;;;;;;;;;;5021488;28;20194;-80
2022/02/26 03:34:21;;;;;;;6.22;3.50;;;;;;;;;;5032764;28;20587;-80
2022/02/26 03:36:48;;;;;;;7.47;4.10;;;;;;;;;;5044070;28;20202;-80
2022/02/26 03:39:15;;;;;;;8.50;4.53;;;;;;;;;;5050504;28;20213;-79
2022/02/26 03:41:41;;;;;;;9.05;4.25;;;;;;;;;;5026676;28;20179;-80
2022/02/26 03:44:08;;;;;;;6.90;4.10;;;;;;;;;;5006554;28;20178;-80
2022/02/26 03:46:34;;;;;;;8.50;3.50;;;;;;;;;;5026284;28;20191;-80
2022/02/26 03:49:03;;;;;;;8.10;4.00;;;;;;;;;;5034396;28;20526;-80
2022/02/26 03:51:29;;;;;;;5.40;3.50;;;;;;;;;;5005526;28;20210;-80
2022/02/26 03:53:55;;;;;;;8.43;4.60;;;;;;;;;;5008423;28;20183;-80
2022/02/26 03:56:21;;;;;;;7.95;3.85;;;;;;;;;;5020950;28;20215;-80
2022/02/26 03:58:50;;;;;;;7.30;5.05;;;;;;;;;;5024689;28;20183;-80
2022/02/26 04:01:16;;;;;;;19.08;4.88;;;;;;;;;;5025467;28;20179;-80
2022/02/26 04:03:42;;;;;;;10.38;3.97;;;;;;;;;;5011175;28;20266;-80
2022/02/26 04:06:08;;;;;;;6.78;3.70;;;;;;;;;;5039521;28;20179;-80
2022/02/26 04:08:34;;;;;;;11.98;4.03;;;;;;;;;;5033325;28;20254;-80
2022/02/26 04:11:01;;;;;;;10.68;4.53;;;;;;;;;;5024186;28;20187;-80
2022/02/26 04:13:27;;;;;;;14.15;4.50;;;;;;;;;;5029789;28;20201;-81
2022/02/26 04:15:53;;;;;;;11.00;5.25;;;;;;;;;;5026914;28;20214;-81
2022/02/26 04:18:19;;;;;;;9.02;4.20;;;;;;;;;;5026310;28;20181;-80
2022/02/26 04:20:45;;;;;;;10.43;3.97;;;;;;;;;;5015154;28;20222;-80
2022/02/26 04:23:11;;;;;;;5.75;3.45;;;;;;;;;;5031519;28;20176;-80
2022/02/26 04:25:37;;;;;;;10.15;4.55;;;;;;;;;;5029744;28;20187;-80
2022/02/26 04:28:03;;;;;;;7.25;3.78;;;;;;;;;;5013335;28;20193;-80
2022/02/26 04:30:29;;;;;;;6.40;4.30;;;;;;;;;;5025831;28;20311;-81
2022/02/26 04:32:55;;;;;;;8.55;4.90;;;;;;;;;;5040410;28;20628;-80
2022/02/26 04:35:21;;;;;;;9.07;3.92;;;;;;;;;;5010521;28;20210;-81
2022/02/26 04:37:47;;;;;;;9.98;3.88;;;;;;;;;;5030691;28;20191;-81
2022/02/26 04:40:15;;;;;;;13.55;5.03;;;;;;;;;;5040498;28;20210;-80
2022/02/26 04:42:41;;;;;;;9.98;3.88;;;;;;;;;;5025070;28;20262;-81
2022/02/26 04:45:08;;;;;;;6.20;3.70;;;;;;;;;;5007932;28;20175;-81
2022/02/26 04:47:34;;;;;;;6.28;4.28;;;;;;;;;;5035361;28;20182;-81
2022/02/26 04:50:00;;;;;;;10.52;4.28;;;;;;;;;;5029339;28;20189;-80
2022/02/26 04:52:26;;;;;;;10.23;3.90;;;;;;;;;;5019165;28;20214;-81
2022/02/26 04:54:52;;;;;;;3.75;3.20;;;;;;;;;;5024952;28;20239;-81
2022/02/26 04:57:18;;;;;;;10.43;3.90;;;;;;;;;;5007310;28;20175;-81
2022/02/26 04:59:44;;;;;;;8.20;3.55;;;;;;;;;;5045723;28;20247;-81
2022/02/26 05:02:10;;;;;;;10.15;4.10;;;;;;;;;;5029400;28;20415;-81
2022/02/26 05:04:36;;;;;;;6.18;4.93;;;;;;;;;;5013854;28;20783;-81
2022/02/26 05:07:02;;;;;;;7.50;4.07;;;;;;;;;;5012323;28;20364;-81
2022/02/26 05:09:28;;;;;;;12.55;4.55;;;;;;;;;;5039385;28;20184;-81
2022/02/26 05:11:54;;;;;;;11.32;3.40;;;;;;;;;;5044383;28;20175;-81
2022/02/26 05:14:20;;;;;;;5.00;3.90;;;;;;;;;;5024055;28;20198;-80
2022/02/26 05:16:46;;;;;;;8.95;4.32;;;;;;;;;;5016105;28;20221;-81
2022/02/26 05:19:12;;;;;;;7.65;4.38;;;;;;;;;;5008093;28;20252;-81
2022/02/26 05:21:38;;;;;;;10.38;4.28;;;;;;;;;;5024954;28;20238;-81
2022/02/26 05:24:05;;;;;;;11.07;4.70;;;;;;;;;;5006068;28;20186;-81
2022/02/26 05:26:30;;;;;;;12.80;4.35;;;;;;;;;;5009642;28;20183;-81
2022/02/26 05:28:56;;;;;;;7.63;5.07;;;;;;;;;;5030890;28;20193;-81
2022/02/26 05:31:23;;;;;;;11.38;4.30;;;;;;;;;;5046212;28;20659;-81
2022/02/26 05:33:49;;;;;;;7.25;4.30;;;;;;;;;;5039715;28;20186;-81
2022/02/26 05:36:15;;;;;;;8.95;5.15;;;;;;;;;;5024417;28;20202;-81
2022/02/26 05:38:41;;;;;;;9.38;4.68;;;;;;;;;;5038258;28;20203;-81
2022/02/26 05:41:07;;;;;;;6.35;4.85;;;;;;;;;;5017163;28;20182;-81
2022/02/26 05:43:34;;;;;;;8.65;5.28;;;;;;;;;;5024762;28;20621;-82
2022/02/26 05:46:00;;;;;;;9.13;4.65;;;;;;;;;;5013864;28;20187;-81
2022/02/26 05:48:26;;;;;;;8.18;4.15;;;;;;;;;;5030381;28;20213;-81
2022/02/26 05:50:52;;;;;;;6.38;4.43;;;;;;;;;;5008132;28;20206;-81
2022/02/26 05:53:18;;;;;;;8.38;3.88;;;;;;;;;;5023299;28;20278;-81
2022/02/26 05:55:44;;;;;;;6.50;4.38;;;;;;;;;;5012714;28;20774;-81
2022/02/26 05:58:10;;;;;;;11.52;3.92;;;;;;;;;;5050334;28;20563;-81
2022/02/26 06:00:36;;;;;;;12.15;5.20;;;;;;;;;;5008511;28;20183;-81
2022/02/26 06:03:02;;;;;;;12.15;4.60;;;;;;;;;;5032816;28;20175;-82
2022/02/26 06:05:28;;;;;;;8.98;4.10;;;;;;;;;;5023405;28;20214;-82
2022/02/26 06:07:54;;;;;;;10.20;4.40;;;;;;;;;;5022897;28;20255;-81
2022/02/26 06:10:20;;;;;;;9.77;4.57;;;;;;;;;;5027064;28;20543;-81
2022/02/26 06:12:46;;;;;;;9.43;4.80;;;;;;;;;;5023959;28;20190;-81
2022/02/26 06:15:12;;;;;;;13.68;4.60;;;;;;;;;;5022748;28;20221;-81
2022/02/26 06:17:38;;;;;;;6.93;3.80;;;;;;;;;;5025985;28;20335;-82
2022/02/26 06:20:04;;;;;;;7.72;4.82;;;;;;;;;;5026887;28;20210;-81
2022/02/26 06:22:30;;;;;;;7.25;4.47;;;;;;;;;;5036270;28;20230;-81
2022/02/26 06:24:56;;;;;;;10.77;4.78;;;;;;;;;;5009826;28;20186;-81
2022/02/26 06:27:22;;;;;;;7.45;4.82;;;;;;;;;;5038822;28;20562;-81
2022/02/26 06:29:48;;;;;;;14.27;5.65;;;;;;;;;;5012166;28;20175;-81
2022/02/26 06:32:14;;;;;;;10.95;4.68;;;;;;;;;;5035487;28;20269;-82
2022/02/26 06:34:40;;;;;;;12.00;5.68;;;;;;;;;;5025445;28;20651;-82
2022/02/26 06:37:06;;;;;;;14.25;5.50;;;;;;;;;;5018021;28;20648;-81
2022/02/26 06:39:32;;;;;;;7.25;4.80;;;;;;;;;;5022641;28;20215;-81
2022/02/26 06:41:58;;;;;;;10.45;5.28;;;;;;;;;;5039897;28;20680;-82
2022/02/26 06:44:25;;;;;;;13.82;4.65;;;;;;;;;;5027985;28;20191;-81
2022/02/26 06:46:51;;;;;;;8.77;5.53;;;;;;;;;;5031670;28;20190;-81
2022/02/26 06:49:17;;;;;;;8.98;4.30;;;;;;;;;;5024019;28;20179;-82
2022/02/26 06:51:43;;;;;;;5.10;4.32;;;;;;;;;;5036845;28;20251;-81
2022/02/26 06:54:09;;;;;;;7.45;4.90;;;;;;;;;;5059509;28;20182;-81
2022/02/26 06:56:35;;;;;;;10.98;5.15;;;;;;;;;;5035136;28;20710;-81
2022/02/26 06:59:01;;;;;;;10.63;4.25;;;;;;;;;;5024137;28;20193;-81
2022/02/26 07:01:27;;;;;;;15.32;4.85;;;;;;;;;;5035827;28;20183;-81
2022/02/26 07:03:53;;;;;;;7.72;4.82;;;;;;;;;;5034734;28;20310;-81
2022/02/26 07:06:19;;;;;;;8.10;4.93;;;;;;;;;;5030915;28;20197;-82
2022/02/26 07:08:45;;;;;;;6.05;4.50;;;;;;;;;;5067955;28;20197;-81
2022/02/26 07:11:12;;;;;;;9.40;5.25;;;;;;;;;;5017186;28;20193;-81
2022/02/26 07:13:38;;;;;;;7.80;6.50;;;;;;;;;;5026163;28;20183;-80
2022/02/26 07:16:04;;;;;;;11.32;4.95;;;;;;;;;;5029285;28;20194;-83
2022/02/26 07:18:30;;;;;;;10.43;5.32;;;;;;;;;;5025256;28;20265;-82
2022/02/26 07:20:56;;;;;;;10.07;5.65;;;;;;;;;;5024051;28;20175;-83
2022/02/26 07:23:22;;;;;;;9.93;5.40;;;;;;;;;;5029785;28;20655;-82
2022/02/26 07:25:48;;;;;;;8.13;6.40;;;;;;;;;;5020597;28;20294;-82
2022/02/26 07:28:17;;;;;;;7.25;5.70;;;;;;;;;;5038512;28;20185;-81
2022/02/26 07:30:43;;;;;;;10.15;6.43;;;;;;;;;;5043106;28;20265;-81
2022/02/26 07:33:09;;;;;;;9.20;5.47;;;;;;;;;;5055645;28;20190;-81
2022/02/26 07:35:36;;;;;;;10.23;5.05;;;;;;;;;;5033912;28;20206;-81
2022/02/26 07:38:02;;;;;;;20.38;6.18;;;;;;;;;;5020712;28;20181;-81
2022/02/26 07:40:29;;;;;;;14.27;6.50;;;;;;;;;;4974837;28;1287853;-81
2022/02/26 07:42:55;;;;;;;10.85;5.70;;;;;;;;;;5032206;28;20232;-82
2022/02/26 07:45:21;;;;;;;9.18;5.82;;;;;;;;;;5021962;28;20179;-82
2022/02/26 07:47:47;;;;;;;12.82;5.72;;;;;;;;;;5056092;28;20183;-83
2022/02/26 07:50:13;;;;;;;11.25;6.25;;;;;;;;;;5018236;28;20201;-83
2022/02/26 07:52:39;;;;;;;18.63;5.32;;;;;;;;;;5014514;28;20182;-82
2022/02/26 07:55:06;;;;;;;14.55;6.80;;;;;;;;;;5036435;28;20234;-83
2022/02/26 07:57:32;;;;;;;15.65;6.20;;;;;;;;;;5030090;28;20226;-82
2022/02/26 07:59:59;;;;;;;8.05;6.78;;;;;;;;;;5018397;28;20171;-82
2022/02/26 08:02:25;;;;;;;12.57;7.00;;;;;;;;;;5025276;28;20185;-83
2022/02/26 08:04:51;;;;;;;11.27;6.75;;;;;;;;;;5026817;28;20189;-82
2022/02/26 08:07:17;;;;;;;9.75;7.15;;;;;;;;;;5022294;28;20605;-82
2022/02/26 08:09:43;;;;;;;11.77;8.75;;;;;;;;;;5036590;28;20214;-82
2022/02/26 08:12:10;;;;;;;11.75;7.63;;;;;;;;;;5023005;28;20176;-83
2022/02/26 08:14:37;;;;;;;14.73;8.63;;;;;;;;;;5039211;28;20229;-83
2022/02/26 08:17:03;;;;;;;17.88;9.90;;;;;;;;;;5033887;28;20619;-82
2022/02/26 08:19:29;;;;;;;16.00;8.95;;;;;;;;;;5016137;28;20250;-83
2022/02/26 08:21:55;;;;;;;13.52;9.00;;;;;;;;;;5022810;28;20213;-83
2022/02/26 08:24:21;;;;;;;19.90;10.30;;;;;;;;;;5024624;28;20232;-83
2022/02/26 08:26:47;;;;;;;19.85;10.23;;;;;;;;;;5055025;28;20269;-82
2022/02/26 08:29:13;;;;;;;20.50;10.40;;;;;;;;;;5041986;28;20184;-82
2022/02/26 08:31:39;;;;;;;17.50;9.57;;;;;;;;;;5042185;28;20183;-82
2022/02/26 08:34:05;;;;;;;19.77;10.52;;;;;;;;;;5020429;28;20194;-82
2022/02/26 08:36:31;;;;;;;17.48;9.63;;;;;;;;;;5028313;28;20219;-82
2022/02/26 08:38:58;;;;;;;23.73;10.23;;;;;;;;;;5037104;28;20221;-82
2022/02/26 08:41:24;;;;;;;19.92;9.73;;;;;;;;;;5038972;28;20217;-82
2022/02/26 08:43:50;;;;;;;17.20;10.95;;;;;;;;;;5023420;28;20174;-82
2022/02/26 08:46:16;;;;;;;22.30;10.35;;;;;;;;;;5019724;28;20242;-82
2022/02/26 08:48:42;;;;;;;14.65;9.60;;;;;;;;;;5024956;28;20171;-82
2022/02/26 08:51:08;;;;;;;16.63;10.18;;;;;;;;;;5024382;28;20428;-82
2022/02/26 08:53:34;;;;;;;17.23;10.40;;;;;;;;;;5020343;28;20668;-82
2022/02/26 08:56:00;;;;;;;17.80;9.27;;;;;;;;;;5044976;28;20229;-81
2022/02/26 08:58:26;;;;;;;21.13;9.43;;;;;;;;;;5031875;28;20220;-82
2022/02/26 09:00:52;;;;;;;17.50;9.93;;;;;;;;;;5046577;28;20210;-82
2022/02/26 09:03:19;;;;;;;17.45;11.13;;;;;;;;;;5021324;28;20182;-82
2022/02/26 09:05:45;;;;;;;20.65;11.35;;;;;;;;;;5045544;28;20189;-84
2022/02/26 09:08:11;;;;;;;22.42;9.65;;;;;;;;;;5057968;28;20202;-82
2022/02/26 09:10:37;;;;;;;16.80;8.93;;;;;;;;;;5025012;28;20191;-81
2022/02/26 09:13:03;;;;;;;12.57;10.48;;;;;;;;;;5037630;28;20233;-81
2022/02/26 09:15:30;;;;;;;16.17;9.10;;;;;;;;;;5024405;28;20209;-80
2022/02/26 09:17:56;;;;;;;16.13;9.90;;;;;;;;;;5022073;28;20220;-82
2022/02/26 09:20:25;;;;;;;16.83;9.40;;;;;;;;;;5035923;28;20178;-81
2022/02/26 09:22:51;;;;;;;16.30;9.73;;;;;;;;;;5018595;28;20241;-81
2022/02/26 09:25:17;;;;;;;16.52;10.65;;;;;;;;;;5034852;28;20205;-81
2022/02/26 09:27:44;;;;;;;11.27;9.65;;;;;;;;;;5052823;28;20194;-80
2022/02/26 09:30:11;;;;;;;14.07;11.35;;;;;;;;;;5038675;28;20201;-80
2022/02/26 09:32:37;;;;;;;15.10;8.63;;;;;;;;;;5052522;28;20187;-80
2022/02/26 09:35:04;;;;;;;22.40;9.77;;;;;;;;;;5015119;28;20194;-80
2022/02/26 09:37:30;;;;;;;13.60;8.57;;;;;;;;;;5014727;28;20644;-79
2022/02/26 09:39:58;;;;;;;15.32;8.48;;;;;;;;;;5033215;28;20252;-80
2022/02/26 09:42:26;;;;;;;12.52;8.40;;;;;;;;;;5037461;28;20182;-80
2022/02/26 09:44:52;;;;;;;16.50;6.47;;;;;;;;;;5023644;28;20171;-80
2022/02/26 09:47:18;;;;;;;6.63;3.60;;;;;;;;;;5029896;28;20191;-83
2022/02/26 09:49:44;;;;;;;5.63;3.85;;;;;;;;;;5027856;28;20314;-84
2022/02/26 09:52:11;;;;;;;5.88;3.35;;;;;;;;;;5009007;28;20262;-81
2022/02/26 09:54:37;;;;;;;8.52;3.95;;;;;;;;;;5007808;28;20186;-84
2022/02/26 09:57:03;;;;;;;8.68;3.25;;;;;;;;;;5010398;28;20318;-81
2022/02/26 09:59:29;;;;;;;8.52;3.58;;;;;;;;;;5013141;28;20187;-82
2022/02/26 10:01:57;;;;;;;5.03;2.75;;;;;;;;;;5023733;28;20242;-81
2022/02/26 10:04:24;;;;;;;6.75;2.88;;;;;;;;;;5024027;28;20194;-81
2022/02/26 10:06:50;;;;;;;7.32;3.33;;;;;;;;;;5024582;28;20183;-86
2022/02/26 10:09:16;;;;;;;6.03;3.13;;;;;;;;;;5023448;28;20191;-81
2022/02/26 10:11:43;;;;;;;3.75;2.40;;;;;;;;;;5012087;28;20183;-83
2022/02/26 10:14:09;;;;;;;6.38;3.00;;;;;;;;;;5012214;28;20683;-81
2022/02/26 10:16:44;;;;;;;6.50;2.40;;;;;;;;;;5011513;28;20211;-84
2022/02/26 10:19:10;;;;;;;7.63;2.70;;;;;;;;;;5026932;28;20428;-86
2022/02/26 10:21:41;;;;;;;6.50;2.67;;;;;;;;;;5008117;28;20178;-81
2022/02/26 10:24:07;;;;;;;3.95;3.00;;;;;;;;;;5004746;28;20179;-82
2022/02/26 10:26:33;;;;;;;6.03;2.40;;;;;;;;;;5008503;28;20641;-82
2022/02/26 10:29:07;;;;;;;5.65;2.45;;;;;;;;;;5012061;28;20187;-80
2022/02/26 10:31:43;;;;;;;7.30;2.75;;;;;;;;;;5023387;28;20746;-80
2022/02/26 10:34:24;;;;;;;5.63;2.60;;;;;;;;;;5023314;28;20217;-81
2022/02/26 10:37:00;;;;;;;4.97;2.70;;;;;;;;;;5013050;28;20202;-81
2022/02/26 10:39:30;;;;;;;4.32;2.67;;;;;;;;;;5037067;28;20222;-80
2022/02/26 10:41:56;;;;;;;5.53;2.65;;;;;;;;;;5044738;28;20185;-80
2022/02/26 10:44:22;;;;;;;4.25;2.60;;;;;;;;;;5018100;28;20179;-81
2022/02/26 10:46:49;;;;;;;4.35;2.30;;;;;;;;;;5043102;28;20257;-80
2022/02/26 10:49:16;;;;;;;6.65;3.10;;;;;;;;;;5037059;28;20259;-80
2022/02/26 10:51:43;;;;;;;3.95;2.58;;;;;;;;;;5022439;28;20178;-80
2022/02/26 10:54:10;;;;;;;7.70;2.97;;;;;;;;;;5035658;28;20191;-79
2022/02/26 10:56:38;;;;;;;7.90;3.33;;;;;;;;;;5036663;28;20206;-84
2022/02/26 10:59:08;;;;;;;11.10;3.83;;;;;;;;;;5017483;28;20256;-81
2022/02/26 11:01:34;;;;;;;6.55;3.78;;;;;;;;;;5020395;28;20199;-81
2022/02/26 11:04:01;;;;;;;9.40;3.17;;;;;;;;;;5043351;28;20173;-81
2022/02/26 11:06:28;;;;;;;4.65;2.75;;;;;;;;;;5007055;28;20242;-82
2022/02/26 11:08:54;;;;;;;4.82;2.70;;;;;;;;;;5051398;28;20185;-81
2022/02/26 11:11:22;;;;;;;4.32;2.50;;;;;;;;;;5009576;28;20183;-83
2022/02/26 11:13:49;;;;;;;6.80;2.72;;;;;;;;;;5008285;28;20202;-83
2022/02/26 11:16:16;;;;;;;7.28;3.90;;;;;;;;;;5026120;28;20296;-81
2022/02/26 11:18:43;;;;;;;4.85;2.67;;;;;;;;;;5033022;28;20213;-81
2022/02/26 11:21:10;;;;;;;7.90;3.10;;;;;;;;;;5023163;28;20191;-80
2022/02/26 11:23:38;;;;;;;8.32;3.58;;;;;;;;;;5021923;28;20178;-82
2022/02/26 11:26:04;;;;;;;8.15;3.53;;;;;;;;;;5014503;28;20206;-78
2022/02/26 11:28:32;;;;;;;8.77;3.72;;;;;;;;;;5011079;28;20217;-84
2022/02/26 11:30:59;;;;;;;3.63;3.13;;;;;;;;;;5013860;28;20177;-83
2022/02/26 11:33:26;;;;;;;8.38;2.83;;;;;;;;;;5036559;28;20206;-83
2022/02/26 11:35:53;;;;;;;5.18;2.58;;;;;;;;;;5065306;28;20205;-82
2022/02/26 11:38:19;;;;;;;5.82;3.40;;;;;;;;;;5023635;28;20205;-82
2022/02/26 11:41:05;;;;;;;4.88;3.00;;;;;;;;;;5029646;28;20261;-80
2022/02/26 11:43:35;;;;;;;4.05;2.55;;;;;;;;;;5017343;28;20187;-81
2022/02/26 11:46:17;;;;;;;10.05;3.80;;;;;;;;;;5039356;28;20186;-81
2022/02/26 11:48:43;;;;;;;4.40;1.92;;;;;;;;;;5007616;28;20185;-81
2022/02/26 11:51:14;;;;;;;11.07;3.17;;;;;;;;;;5023170;28;20206;-80
2022/02/26 11:53:42;;;;;;;4.43;2.60;;;;;;;;;;5023989;28;20179;-84
2022/02/26 11:56:08;;;;;;;6.57;2.60;;;;;;;;;;5029683;28;20230;-81
2022/02/26 11:58:34;;;;;;;7.80;2.38;;;;;;;;;;5012638;28;20187;-83
2022/02/26 12:01:11;;;;;;;10.68;2.60;;;;;;;;;;5024495;28;20182;-83
2022/02/26 12:03:44;;;;;;;8.05;2.55;;;;;;;;;;5021946;28;20174;-81
2022/02/26 12:06:11;;;;;;;7.55;2.60;;;;;;;;;;5041326;28;20170;-82
2022/02/26 12:09:01;;;;;;;7.50;2.50;;;;;;;;;;5021376;28;20255;-82
2022/02/26 12:11:42;;;;;;;6.97;2.75;;;;;;;;;;5007085;28;20214;-82
2022/02/26 12:14:19;;;;;;;6.68;3.28;;;;;;;;;;5047040;28;20183;-84
2022/02/26 12:16:50;;;;;;;5.85;3.47;;;;;;;;;;5013918;28;20214;-83
2022/02/26 12:19:23;;;;;;;6.28;2.25;;;;;;;;;;5048921;28;20179;-82
2022/02/26 12:21:51;;;;;;;3.88;2.33;;;;;;;;;;5026074;28;20174;-82
2022/02/26 12:24:17;;;;;;;4.68;2.80;;;;;;;;;;5007008;28;20229;-82
2022/02/26 12:26:45;;;;;;;6.10;2.60;;;;;;;;;;5016685;28;20187;-79
2022/02/26 12:29:30;;;;;;;4.43;2.78;;;;;;;;;;5024763;28;20440;-84
2022/02/26 12:31:57;;;;;;;6.47;2.60;;;;;;;;;;5034915;28;20209;-83
2022/02/26 12:34:25;;;;;;;4.05;1.98;;;;;;;;;;5029837;28;20187;-79
2022/02/26 12:37:10;;;;;;;4.38;2.13;;;;;;;;;;5041008;28;20217;-83
2022/02/26 12:39:40;;;;;;;3.05;2.35;;;;;;;;;;5028497;28;20376;-83
2022/02/26 12:42:07;;;;;;;3.80;2.42;;;;;;;;;;5027777;28;20183;-82
2022/02/26 12:44:38;;;;;;;4.75;3.33;;;;;;;;;;5014685;28;20186;-84
2022/02/26 12:47:04;;;;;;;7.35;2.90;;;;;;;;;;5014486;28;20214;-83
2022/02/26 12:49:32;;;;;;;3.97;2.72;;;;;;;;;;5014185;28;20186;-82
2022/02/26 12:51:58;;;;;;;2.50;1.80;;;;;;;;;;5024794;28;20547;-85
2022/02/26 12:54:31;;;;;;;4.40;2.70;;;;;;;;;;5038743;28;20179;-81
2022/02/26 12:56:57;;;;;;;4.05;2.35;;;;;;;;;;5040129;28;20195;-79
2022/02/26 12:59:24;;;;;;;5.03;2.55;;;;;;;;;;5015997;28;20206;-82
2022/02/26 13:01:54;;;;;;;4.22;2.05;;;;;;;;;;5038008;28;20182;-83
2022/02/26 13:04:24;;;;;;;5.13;2.75;;;;;;;;;;5032092;28;20254;-82
2022/02/26 13:06:54;;;;;;;5.00;3.30;;;;;;;;;;5052459;28;20213;-82
2022/02/26 13:09:20;;;;;;;3.15;2.90;;;;;;;;;;5009268;28;20206;-82
2022/02/26 13:11:47;;;;;;;4.32;2.88;;;;;;;;;;5045092;28;20246;-82
2022/02/26 13:14:13;;;;;;;5.57;3.50;;;;;;;;;;5013774;28;20210;-88
2022/02/26 13:16:42;;;;;;;4.90;2.92;;;;;;;;;;5024246;28;20214;-82
2022/02/26 13:19:08;;;;;;;4.57;3.08;;;;;;;;;;5012897;28;20683;-84
2022/02/26 13:21:35;;;;;;;3.47;2.58;;;;;;;;;;5023855;28;20190;-83
2022/02/26 13:24:10;;;;;;;4.85;2.90;;;;;;;;;;5010782;28;20171;-81
2022/02/26 13:26:36;;;;;;;4.53;3.20;;;;;;;;;;5013539;28;20187;-81
2022/02/26 13:29:13;;;;;;;5.28;2.75;;;;;;;;;;5021276;28;20252;-82
2022/02/26 13:31:41;;;;;;;6.82;2.30;;;;;;;;;;5030929;28;20193;-81
2022/02/26 13:34:15;;;;;;;5.82;3.50;;;;;;;;;;5023719;28;20210;-81
2022/02/26 13:36:41;;;;;;;6.70;3.90;;;;;;;;;;5040222;28;20239;-82
2022/02/26 13:39:07;;;;;;;5.63;2.80;;;;;;;;;;5020459;28;20221;-85
2022/02/26 13:41:33;;;;;;;5.05;3.15;;;;;;;;;;5024653;28;20293;-81
2022/02/26 13:44:00;;;;;;;8.90;3.20;;;;;;;;;;5034886;28;20205;-81
2022/02/26 13:46:27;;;;;;;4.15;2.58;;;;;;;;;;5017266;28;20194;-83
2022/02/26 13:48:53;;;;;;;4.93;3.38;;;;;;;;;;5023447;28;20254;-85
2022/02/26 13:51:22;;;;;;;3.10;2.72;;;;;;;;;;5027706;28;20180;-82
2022/02/26 13:53:49;;;;;;;5.45;2.85;;;;;;;;;;5026844;28;20543;-82
2022/02/26 13:56:26;;;;;;;5.25;2.50;;;;;;;;;;5027818;28;20208;-86
2022/02/26 13:58:53;;;;;;;4.50;3.00;;;;;;;;;;5013104;28;20176;-85
2022/02/26 14:01:19;;;;;;;4.38;2.92;;;;;;;;;;5033469;28;20209;-84
2022/02/26 14:03:49;;;;;;;8.55;3.03;;;;;;;;;;5039210;28;20256;-83
2022/02/26 14:06:17;;;;;;;5.35;3.40;;;;;;;;;;5038981;28;20174;-83
2022/02/26 14:08:44;;;;;;;4.93;3.40;;;;;;;;;;5040150;28;20185;-84
2022/02/26 14:11:10;;;;;;;4.28;2.70;;;;;;;;;;5023190;28;20229;-83
2022/02/26 14:13:37;;;;;;;4.17;2.67;;;;;;;;;;5027769;28;20190;-78
2022/02/26 14:16:06;;;;;;;5.20;3.60;;;;;;;;;;5010808;28;20465;-85
2022/02/26 14:18:35;;;;;;;3.23;2.23;;;;;;;;;;5032916;28;20448;-85
2022/02/26 14:21:01;;;;;;;4.13;3.17;;;;;;;;;;5023238;28;20448;-85
2022/02/26 14:23:28;;;;;;;4.93;3.00;;;;;;;;;;5014255;28;20450;-86
2022/02/26 14:25:56;;;;;;;6.00;2.50;;;;;;;;;;5012776;28;20449;-83
2022/02/26 14:28:24;;;;;;;5.57;2.60;;;;;;;;;;5027611;28;20450;-84
2022/02/26 14:30:50;;;;;;;4.70;3.20;;;;;;;;;;5044263;28;20532;-84
2022/02/26 14:33:16;;;;;;;3.00;2.50;;;;;;;;;;5023344;28;20456;-85
2022/02/26 14:35:42;;;;;;;5.23;2.40;;;;;;;;;;5023523;28;20775;-84
2022/02/26 14:38:09;;;;;;;3.97;3.13;;;;;;;;;;5016376;28;20549;-86